sensor_id;sensor_type;location;lat;lon;timestamp;temperature;humidity
2855;DHT22;1435;49.472;10.940;2022-10-19T00:00:27;14.60;99.90
2855;DHT22;1435;49.472;10.940;2022-10-19T00:05:29;14.60;99.90
2855;DHT22;1435;49.472;10.940;2022-10-19T00:10:32;14.70;99.90
2855;DHT22;1435;49.472;10.940;2022-10-19T00:15:37;14.70;99.90
2855;DHT22;1435;49.472;10.940;2022-10-19T00:20:39;14.70;99.90
2855;DHT22;1435;49.472;10.940;2022-10-19T00:25:42;14.70;99.90
2855;DHT22;1435;49.472;10.940;2022-10-19T00:30:44;14.60;99.90
2855;DHT22;1435;49.472;10.940;2022-10-19T00:35:46;14.70;99.90
2855;DHT22;1435;49.472;10.940;2022-10-19T00:40:50;14.70;99.90
2855;DHT22;1435;49.472;10.940;2022-10-19T00:45:52;14.70;99.90
2855;DHT22;1435;49.472;10.940;2022-10-19T00:50:55;14.70;99.90
2855;DHT22;1435;49.472;10.940;2022-10-19T00:56:04;14.70;99.90
2855;DHT22;1435;49.472;10.940;2022-10-19T01:01:09;14.70;99.90
2855;DHT22;1435;49.472;10.940;2022-10-19T01:06:13;14.50;99.90
2855;DHT22;1435;49.472;10.940;2022-10-19T01:11:23;14.60;99.90
2855;DHT22;1435;49.472;10.940;2022-10-19T01:16:33;14.60;99.90
2855;DHT22;1435;49.472;10.940;2022-10-19T01:21:38;14.60;99.90
2855;DHT22;1435;49.472;10.940;2022-10-19T01:32:17;14.70;99.90
2855;DHT22;1435;49.472;10.940;2022-10-19T01:37:26;14.70;99.90
2855;DHT22;1435;49.472;10.940;2022-10-19T01:42:37;14.60;99.90
2855;DHT22;1435;49.472;10.940;2022-10-19T01:47:48;14.70;99.90
2855;DHT22;1435;49.472;10.940;2022-10-19T01:53:42;14.60;99.90
2855;DHT22;1435;49.472;10.940;2022-10-19T01:58:45;14.60;99.90
2855;DHT22;1435;49.472;10.940;2022-10-19T02:03:50;14.60;99.90
2855;DHT22;1435;49.472;10.940;2022-10-19T02:08:53;14.60;99.90
2855;DHT22;1435;49.472;10.940;2022-10-19T02:13:58;14.60;99.90
2855;DHT22;1435;49.472;10.940;2022-10-19T02:19:04;14.60;99.90
2855;DHT22;1435;49.472;10.940;2022-10-19T02:24:08;14.60;99.90
2855;DHT22;1435;49.472;10.940;2022-10-19T02:29:10;14.60;99.90
2855;DHT22;1435;49.472;10.940;2022-10-19T02:34:15;14.50;99.90
2855;DHT22;1435;49.472;10.940;2022-10-19T02:39:17;14.50;99.90
2855;DHT22;1435;49.472;10.940;2022-10-19T02:44:23;14.40;99.90
2855;DHT22;1435;49.472;10.940;2022-10-19T02:49:28;14.40;99.90
2855;DHT22;1435;49.472;10.940;2022-10-19T02:54:31;14.50;99.90
2855;DHT22;1435;49.472;10.940;2022-10-19T02:59:33;14.40;99.90
2855;DHT22;1435;49.472;10.940;2022-10-19T03:04:36;14.40;99.90
2855;DHT22;1435;49.472;10.940;2022-10-19T03:09:37;14.30;99.90
2855;DHT22;1435;49.472;10.940;2022-10-19T03:14:39;14.30;99.90
2855;DHT22;1435;49.472;10.940;2022-10-19T03:19:42;14.40;99.90
2855;DHT22;1435;49.472;10.940;2022-10-19T03:24:44;14.40;99.90
2855;DHT22;1435;49.472;10.940;2022-10-19T03:29:45;14.40;99.90
2855;DHT22;1435;49.472;10.940;2022-10-19T03:34:48;14.30;99.90
2855;DHT22;1435;49.472;10.940;2022-10-19T03:39:50;14.20;99.90
2855;DHT22;1435;49.472;10.940;2022-10-19T03:44:52;14.20;99.90
2855;DHT22;1435;49.472;10.940;2022-10-19T03:49:55;14.20;99.90
2855;DHT22;1435;49.472;10.940;2022-10-19T03:54:56;14.30;99.90
2855;DHT22;1435;49.472;10.940;2022-10-19T03:59:58;14.30;99.90
2855;DHT22;1435;49.472;10.940;2022-10-19T04:05:01;14.20;99.90
2855;DHT22;1435;49.472;10.940;2022-10-19T04:10:03;14.30;99.90
2855;DHT22;1435;49.472;10.940;2022-10-19T04:15:06;14.30;99.90
2855;DHT22;1435;49.472;10.940;2022-10-19T04:20:10;14.30;99.90
2855;DHT22;1435;49.472;10.940;2022-10-19T04:25:12;14.30;99.90
2855;DHT22;1435;49.472;10.940;2022-10-19T04:30:14;14.30;99.90
2855;DHT22;1435;49.472;10.940;2022-10-19T04:35:17;14.30;99.90
2855;DHT22;1435;49.472;10.940;2022-10-19T04:40:18;14.30;99.90
2855;DHT22;1435;49.472;10.940;2022-10-19T04:45:20;14.30;99.90
2855;DHT22;1435;49.472;10.940;2022-10-19T04:50:23;14.30;99.90
2855;DHT22;1435;49.472;10.940;2022-10-19T04:55:25;14.30;99.90
2855;DHT22;1435;49.472;10.940;2022-10-19T05:00:27;14.30;99.90
2855;DHT22;1435;49.472;10.940;2022-10-19T05:05:30;14.30;99.90
2855;DHT22;1435;49.472;10.940;2022-10-19T05:10:32;14.30;99.90
2855;DHT22;1435;49.472;10.940;2022-10-19T05:15:34;14.30;99.90
2855;DHT22;1435;49.472;10.940;2022-10-19T05:20:37;14.30;99.90
2855;DHT22;1435;49.472;10.940;2022-10-19T05:25:39;14.30;99.90
2855;DHT22;1435;49.472;10.940;2022-10-19T05:30:41;14.30;99.90
2855;DHT22;1435;49.472;10.940;2022-10-19T05:35:44;14.30;99.90
2855;DHT22;1435;49.472;10.940;2022-10-19T05:40:45;14.30;99.90
2855;DHT22;1435;49.472;10.940;2022-10-19T05:45:47;14.30;99.90
2855;DHT22;1435;49.472;10.940;2022-10-19T05:50:54;14.30;99.90
2855;DHT22;1435;49.472;10.940;2022-10-19T05:55:56;14.20;99.90
2855;DHT22;1435;49.472;10.940;2022-10-19T06:00:59;14.20;99.90
2855;DHT22;1435;49.472;10.940;2022-10-19T06:06:03;14.20;99.90
2855;DHT22;1435;49.472;10.940;2022-10-19T06:11:07;14.20;99.90
2855;DHT22;1435;49.472;10.940;2022-10-19T06:16:11;14.20;99.90
2855;DHT22;1435;49.472;10.940;2022-10-19T06:21:16;14.20;99.90
2855;DHT22;1435;49.472;10.940;2022-10-19T06:26:19;14.10;99.90
2855;DHT22;1435;49.472;10.940;2022-10-19T06:31:21;14.10;99.90
2855;DHT22;1435;49.472;10.940;2022-10-19T06:36:25;14.10;99.90
2855;DHT22;1435;49.472;10.940;2022-10-19T06:41:27;14.10;99.90
2855;DHT22;1435;49.472;10.940;2022-10-19T06:46:29;14.20;99.90
2855;DHT22;1435;49.472;10.940;2022-10-19T06:51:33;14.10;99.90
2855;DHT22;1435;49.472;10.940;2022-10-19T06:56:35;14.10;99.90
2855;DHT22;1435;49.472;10.940;2022-10-19T07:01:36;14.10;99.90
2855;DHT22;1435;49.472;10.940;2022-10-19T07:06:39;14.10;99.90
2855;DHT22;1435;49.472;10.940;2022-10-19T07:11:41;14.00;99.90
2855;DHT22;1435;49.472;10.940;2022-10-19T07:16:43;14.00;99.90
2855;DHT22;1435;49.472;10.940;2022-10-19T07:21:49;14.10;99.90
2855;DHT22;1435;49.472;10.940;2022-10-19T07:26:51;13.90;99.90
2855;DHT22;1435;49.472;10.940;2022-10-19T07:31:52;13.90;99.90
2855;DHT22;1435;49.472;10.940;2022-10-19T07:36:56;14.00;99.90
2855;DHT22;1435;49.472;10.940;2022-10-19T07:41:57;13.90;99.90
2855;DHT22;1435;49.472;10.940;2022-10-19T07:46:59;14.00;99.90
2855;DHT22;1435;49.472;10.940;2022-10-19T07:52:02;14.00;99.90
2855;DHT22;1435;49.472;10.940;2022-10-19T07:57:04;14.10;99.90
2855;DHT22;1435;49.472;10.940;2022-10-19T08:02:12;14.10;99.90
2855;DHT22;1435;49.472;10.940;2022-10-19T08:07:16;14.10;99.90
2855;DHT22;1435;49.472;10.940;2022-10-19T08:12:18;14.10;99.90
2855;DHT22;1435;49.472;10.940;2022-10-19T08:17:19;14.10;99.90
2855;DHT22;1435;49.472;10.940;2022-10-19T08:22:22;14.00;99.90
2855;DHT22;1435;49.472;10.940;2022-10-19T08:27:24;14.00;99.90
2855;DHT22;1435;49.472;10.940;2022-10-19T08:32:26;14.00;99.90
2855;DHT22;1435;49.472;10.940;2022-10-19T08:37:29;14.00;99.90
2855;DHT22;1435;49.472;10.940;2022-10-19T08:42:40;14.00;99.90
2855;DHT22;1435;49.472;10.940;2022-10-19T08:47:58;14.00;99.90
2855;DHT22;1435;49.472;10.940;2022-10-19T08:53:04;14.00;99.90
2855;DHT22;1435;49.472;10.940;2022-10-19T08:58:19;14.00;99.90
2855;DHT22;1435;49.472;10.940;2022-10-19T09:03:24;13.90;99.90
2855;DHT22;1435;49.472;10.940;2022-10-19T09:08:27;13.90;99.90
2855;DHT22;1435;49.472;10.940;2022-10-19T09:13:33;13.90;99.90
2855;DHT22;1435;49.472;10.940;2022-10-19T09:18:37;13.90;99.90
2855;DHT22;1435;49.472;10.940;2022-10-19T09:23:43;13.90;99.90
2855;DHT22;1435;49.472;10.940;2022-10-19T09:28:52;13.90;99.90
2855;DHT22;1435;49.472;10.940;2022-10-19T09:34:00;13.90;99.90
2855;DHT22;1435;49.472;10.940;2022-10-19T09:39:03;13.90;99.90
2855;DHT22;1435;49.472;10.940;2022-10-19T09:44:05;13.90;99.90
2855;DHT22;1435;49.472;10.940;2022-10-19T09:49:07;13.90;99.90
2855;DHT22;1435;49.472;10.940;2022-10-19T09:54:24;13.90;99.90
2855;DHT22;1435;49.472;10.940;2022-10-19T09:59:30;13.90;99.90
2855;DHT22;1435;49.472;10.940;2022-10-19T10:04:33;13.90;99.90
2855;DHT22;1435;49.472;10.940;2022-10-19T10:09:39;13.90;99.90
2855;DHT22;1435;49.472;10.940;2022-10-19T10:14:43;13.90;99.90
2855;DHT22;1435;49.472;10.940;2022-10-19T10:19:51;14.00;99.90
2855;DHT22;1435;49.472;10.940;2022-10-19T10:25:11;14.00;99.90
2855;DHT22;1435;49.472;10.940;2022-10-19T10:30:19;13.90;99.90
2855;DHT22;1435;49.472;10.940;2022-10-19T10:35:24;13.90;99.90
2855;DHT22;1435;49.472;10.940;2022-10-19T10:40:29;13.90;99.90
2855;DHT22;1435;49.472;10.940;2022-10-19T10:45:33;14.00;99.90
2855;DHT22;1435;49.472;10.940;2022-10-19T10:50:37;13.90;99.90
2855;DHT22;1435;49.472;10.940;2022-10-19T10:55:54;14.00;99.90
2855;DHT22;1435;49.472;10.940;2022-10-19T11:00:58;14.00;99.90
2855;DHT22;1435;49.472;10.940;2022-10-19T11:06:02;14.10;99.90
2855;DHT22;1435;49.472;10.940;2022-10-19T11:11:11;14.10;99.90
2855;DHT22;1435;49.472;10.940;2022-10-19T11:16:16;14.10;99.90
2855;DHT22;1435;49.472;10.940;2022-10-19T11:21:23;14.10;99.90
2855;DHT22;1435;49.472;10.940;2022-10-19T11:26:41;14.10;99.90
2855;DHT22;1435;49.472;10.940;2022-10-19T11:31:46;14.10;99.90
2855;DHT22;1435;49.472;10.940;2022-10-19T11:36:52;14.20;99.90
2855;DHT22;1435;49.472;10.940;2022-10-19T11:42:04;14.20;99.90
2855;DHT22;1435;49.472;10.940;2022-10-19T11:47:26;14.20;99.90
2855;DHT22;1435;49.472;10.940;2022-10-19T11:52:39;14.30;99.90
2855;DHT22;1435;49.472;10.940;2022-10-19T11:57:52;14.30;99.90
2855;DHT22;1435;49.472;10.940;2022-10-19T12:03:11;14.30;99.90
2855;DHT22;1435;49.472;10.940;2022-10-19T12:08:28;14.30;99.90
2855;DHT22;1435;49.472;10.940;2022-10-19T12:13:38;14.40;99.90
2855;DHT22;1435;49.472;10.940;2022-10-19T12:18:42;14.40;99.90
2855;DHT22;1435;49.472;10.940;2022-10-19T12:23:46;14.50;99.90
2855;DHT22;1435;49.472;10.940;2022-10-19T12:28:52;14.50;99.90
2855;DHT22;1435;49.472;10.940;2022-10-19T12:33:59;14.60;99.90
2855;DHT22;1435;49.472;10.940;2022-10-19T12:39:10;14.70;99.90
2855;DHT22;1435;49.472;10.940;2022-10-19T12:44:33;14.80;99.90
2855;DHT22;1435;49.472;10.940;2022-10-19T12:49:49;14.90;99.90
2855;DHT22;1435;49.472;10.940;2022-10-19T12:54:51;15.00;99.90
2855;DHT22;1435;49.472;10.940;2022-10-19T12:59:59;15.10;99.90
2855;DHT22;1435;49.472;10.940;2022-10-19T13:05:02;15.20;99.90
2855;DHT22;1435;49.472;10.940;2022-10-19T13:10:06;15.30;99.90
2855;DHT22;1435;49.472;10.940;2022-10-19T13:20:59;15.70;99.90
2855;DHT22;1435;49.472;10.940;2022-10-19T13:26:22;15.80;99.90
2855;DHT22;1435;49.472;10.940;2022-10-19T13:31:27;15.90;99.90
2855;DHT22;1435;49.472;10.940;2022-10-19T13:36:30;16.00;99.90
2855;DHT22;1435;49.472;10.940;2022-10-19T13:41:48;16.20;99.90
2855;DHT22;1435;49.472;10.940;2022-10-19T13:47:20;16.40;99.90
2855;DHT22;1435;49.472;10.940;2022-10-19T13:52:40;16.40;99.90
2855;DHT22;1435;49.472;10.940;2022-10-19T13:57:54;16.50;99.90
2855;DHT22;1435;49.472;10.940;2022-10-19T14:03:24;16.60;99.90
2855;DHT22;1435;49.472;10.940;2022-10-19T14:08:43;16.70;99.90
2855;DHT22;1435;49.472;10.940;2022-10-19T14:14:11;16.70;99.90
2855;DHT22;1435;49.472;10.940;2022-10-19T14:19:20;16.70;99.90
2855;DHT22;1435;49.472;10.940;2022-10-19T14:24:32;16.70;99.90
2855;DHT22;1435;49.472;10.940;2022-10-19T14:29:42;16.80;99.90
2855;DHT22;1435;49.472;10.940;2022-10-19T14:34:46;17.00;99.90
2855;DHT22;1435;49.472;10.940;2022-10-19T14:40:00;17.10;99.90
2855;DHT22;1435;49.472;10.940;2022-10-19T14:45:05;17.20;99.90
2855;DHT22;1435;49.472;10.940;2022-10-19T14:50:10;17.30;99.90
2855;DHT22;1435;49.472;10.940;2022-10-19T14:55:16;17.40;99.90
2855;DHT22;1435;49.472;10.940;2022-10-19T15:00:20;17.50;99.90
2855;DHT22;1435;49.472;10.940;2022-10-19T15:05:25;17.50;99.90
2855;DHT22;1435;49.472;10.940;2022-10-19T15:10:38;17.60;99.90
2855;DHT22;1435;49.472;10.940;2022-10-19T15:15:41;17.60;99.90
2855;DHT22;1435;49.472;10.940;2022-10-19T15:20:43;17.60;99.90
2855;DHT22;1435;49.472;10.940;2022-10-19T15:25:46;17.60;99.90
2855;DHT22;1435;49.472;10.940;2022-10-19T15:30:58;17.60;99.90
2855;DHT22;1435;49.472;10.940;2022-10-19T15:36:05;17.60;99.90
2855;DHT22;1435;49.472;10.940;2022-10-19T15:41:20;17.60;99.90
2855;DHT22;1435;49.472;10.940;2022-10-19T15:46:33;17.60;99.90
2855;DHT22;1435;49.472;10.940;2022-10-19T15:51:43;17.60;99.90
2855;DHT22;1435;49.472;10.940;2022-10-19T15:56:50;17.50;99.90
2855;DHT22;1435;49.472;10.940;2022-10-19T16:01:52;17.50;99.90
2855;DHT22;1435;49.472;10.940;2022-10-19T16:06:54;17.40;99.90
2855;DHT22;1435;49.472;10.940;2022-10-19T16:11:57;17.30;99.90
2855;DHT22;1435;49.472;10.940;2022-10-19T16:16:59;17.20;99.90
2855;DHT22;1435;49.472;10.940;2022-10-19T16:22:00;17.00;99.90
2855;DHT22;1435;49.472;10.940;2022-10-19T16:27:04;16.80;99.90
2855;DHT22;1435;49.472;10.940;2022-10-19T16:32:07;16.50;99.90
2855;DHT22;1435;49.472;10.940;2022-10-19T16:37:08;16.30;99.90
2855;DHT22;1435;49.472;10.940;2022-10-19T16:42:11;16.10;99.90
2855;DHT22;1435;49.472;10.940;2022-10-19T16:47:13;16.00;99.90
2855;DHT22;1435;49.472;10.940;2022-10-19T16:52:16;15.70;99.90
2855;DHT22;1435;49.472;10.940;2022-10-19T16:57:19;15.60;99.90
2855;DHT22;1435;49.472;10.940;2022-10-19T17:02:21;15.50;99.90
2855;DHT22;1435;49.472;10.940;2022-10-19T17:07:23;15.30;99.90
2855;DHT22;1435;49.472;10.940;2022-10-19T17:12:26;15.00;99.90
2855;DHT22;1435;49.472;10.940;2022-10-19T17:17:28;14.80;99.90
2855;DHT22;1435;49.472;10.940;2022-10-19T17:22:30;14.50;99.90
2855;DHT22;1435;49.472;10.940;2022-10-19T17:27:33;14.40;99.90
2855;DHT22;1435;49.472;10.940;2022-10-19T17:32:34;14.30;99.90
2855;DHT22;1435;49.472;10.940;2022-10-19T17:37:36;14.20;99.90
2855;DHT22;1435;49.472;10.940;2022-10-19T17:42:39;13.90;99.90
2855;DHT22;1435;49.472;10.940;2022-10-19T17:47:41;14.10;99.90
2855;DHT22;1435;49.472;10.940;2022-10-19T17:52:43;13.90;99.90
2855;DHT22;1435;49.472;10.940;2022-10-19T17:57:46;13.90;99.90
2855;DHT22;1435;49.472;10.940;2022-10-19T18:02:47;13.70;99.90
2855;DHT22;1435;49.472;10.940;2022-10-19T18:07:49;13.60;99.90
2855;DHT22;1435;49.472;10.940;2022-10-19T18:12:54;13.50;99.90
2855;DHT22;1435;49.472;10.940;2022-10-19T18:17:57;13.40;99.90
2855;DHT22;1435;49.472;10.940;2022-10-19T18:22:59;13.40;99.90
2855;DHT22;1435;49.472;10.940;2022-10-19T18:28:02;13.30;99.90
2855;DHT22;1435;49.472;10.940;2022-10-19T18:33:05;13.20;99.90
2855;DHT22;1435;49.472;10.940;2022-10-19T18:38:07;13.20;99.90
2855;DHT22;1435;49.472;10.940;2022-10-19T18:43:10;13.00;99.90
2855;DHT22;1435;49.472;10.940;2022-10-19T18:48:12;12.90;99.90
2855;DHT22;1435;49.472;10.940;2022-10-19T18:53:14;12.70;99.90
2855;DHT22;1435;49.472;10.940;2022-10-19T18:58:17;12.80;99.90
2855;DHT22;1435;49.472;10.940;2022-10-19T19:03:18;12.80;99.90
2855;DHT22;1435;49.472;10.940;2022-10-19T19:08:24;12.70;99.90
2855;DHT22;1435;49.472;10.940;2022-10-19T19:13:27;12.70;99.90
2855;DHT22;1435;49.472;10.940;2022-10-19T19:18:30;12.60;99.90
2855;DHT22;1435;49.472;10.940;2022-10-19T19:23:33;12.60;99.90
2855;DHT22;1435;49.472;10.940;2022-10-19T19:28:36;12.50;99.90
2855;DHT22;1435;49.472;10.940;2022-10-19T19:33:38;12.50;99.90
2855;DHT22;1435;49.472;10.940;2022-10-19T19:38:40;12.30;99.90
2855;DHT22;1435;49.472;10.940;2022-10-19T19:43:43;12.20;99.90
2855;DHT22;1435;49.472;10.940;2022-10-19T19:48:47;12.20;99.90
2855;DHT22;1435;49.472;10.940;2022-10-19T19:53:48;12.10;99.90
2855;DHT22;1435;49.472;10.940;2022-10-19T19:58:54;11.90;99.90
2855;DHT22;1435;49.472;10.940;2022-10-19T20:03:57;11.90;99.90
2855;DHT22;1435;49.472;10.940;2022-10-19T20:08:58;11.80;99.90
2855;DHT22;1435;49.472;10.940;2022-10-19T20:14:02;11.80;99.90
2855;DHT22;1435;49.472;10.940;2022-10-19T20:19:05;11.70;99.90
2855;DHT22;1435;49.472;10.940;2022-10-19T20:24:08;11.50;99.90
2855;DHT22;1435;49.472;10.940;2022-10-19T20:29:11;11.40;99.90
2855;DHT22;1435;49.472;10.940;2022-10-19T20:34:13;11.40;99.90
2855;DHT22;1435;49.472;10.940;2022-10-19T20:39:16;11.30;99.90
2855;DHT22;1435;49.472;10.940;2022-10-19T20:44:19;11.20;99.90
2855;DHT22;1435;49.472;10.940;2022-10-19T20:49:21;11.20;99.90
2855;DHT22;1435;49.472;10.940;2022-10-19T20:54:23;11.10;99.90
2855;DHT22;1435;49.472;10.940;2022-10-19T20:59:26;11.00;99.90
2855;DHT22;1435;49.472;10.940;2022-10-19T21:04:27;10.90;99.90
2855;DHT22;1435;49.472;10.940;2022-10-19T21:09:29;10.90;99.90
2855;DHT22;1435;49.472;10.940;2022-10-19T21:14:33;10.80;99.90
2855;DHT22;1435;49.472;10.940;2022-10-19T21:19:36;10.60;99.90
2855;DHT22;1435;49.472;10.940;2022-10-19T21:24:38;10.50;99.90
2855;DHT22;1435;49.472;10.940;2022-10-19T21:29:41;10.40;99.90
2855;DHT22;1435;49.472;10.940;2022-10-19T21:34:43;10.30;99.90
2855;DHT22;1435;49.472;10.940;2022-10-19T21:39:45;10.20;99.90
2855;DHT22;1435;49.472;10.940;2022-10-19T21:44:48;10.10;99.90
2855;DHT22;1435;49.472;10.940;2022-10-19T21:49:49;10.10;99.90
2855;DHT22;1435;49.472;10.940;2022-10-19T21:54:52;10.10;99.90
2855;DHT22;1435;49.472;10.940;2022-10-19T21:59:55;10.00;99.90
2855;DHT22;1435;49.472;10.940;2022-10-19T22:04:57;9.90;99.90
2855;DHT22;1435;49.472;10.940;2022-10-19T22:09:58;9.90;99.90
2855;DHT22;1435;49.472;10.940;2022-10-19T22:15:02;9.70;99.90
2855;DHT22;1435;49.472;10.940;2022-10-19T22:20:04;9.80;99.90
2855;DHT22;1435;49.472;10.940;2022-10-19T22:25:07;9.70;99.90
2855;DHT22;1435;49.472;10.940;2022-10-19T22:30:10;9.60;99.90
2855;DHT22;1435;49.472;10.940;2022-10-19T22:35:12;9.60;99.90
2855;DHT22;1435;49.472;10.940;2022-10-19T22:40:14;9.60;99.90
2855;DHT22;1435;49.472;10.940;2022-10-19T22:45:17;9.60;99.90
2855;DHT22;1435;49.472;10.940;2022-10-19T22:50:19;9.30;99.90
2855;DHT22;1435;49.472;10.940;2022-10-19T22:55:20;9.10;99.90
2855;DHT22;1435;49.472;10.940;2022-10-19T23:00:23;9.10;99.90
2855;DHT22;1435;49.472;10.940;2022-10-19T23:05:25;9.10;99.90
2855;DHT22;1435;49.472;10.940;2022-10-19T23:10:27;9.00;99.90
2855;DHT22;1435;49.472;10.940;2022-10-19T23:15:30;9.10;99.90
2855;DHT22;1435;49.472;10.940;2022-10-19T23:20:32;8.90;99.90
2855;DHT22;1435;49.472;10.940;2022-10-19T23:25:33;8.80;99.90
2855;DHT22;1435;49.472;10.940;2022-10-19T23:30:37;8.70;99.90
2855;DHT22;1435;49.472;10.940;2022-10-19T23:35:39;8.80;99.90
2855;DHT22;1435;49.472;10.940;2022-10-19T23:40:42;8.80;99.90
2855;DHT22;1435;49.472;10.940;2022-10-19T23:45:45;8.60;99.90
2855;DHT22;1435;49.472;10.940;2022-10-19T23:50:55;8.60;99.90
2855;DHT22;1435;49.472;10.940;2022-10-19T23:55:58;8.50;99.90
